Time;durP1;ratioP1;P1;durP2;ratioP2;P2;SDS_P1;SDS_P2;PMS_P1;PMS_P2;Temp;Humidity;BMP_temperature;BMP_pressure;BME280_temperature;BME280_humidity;BME280_pressure;Samples;Min_cycle;Max_cycle;Signal;HPM_P1;HPM_P2
2020/12/01 00:01:47;;;;;;;13.60;7.53;;;17.70;46.00;;;;;;5068155;28;20481;-45
2020/12/01 00:04:13;;;;;;;11.70;7.78;;;17.70;46.00;;;;;;5066132;28;20045;-47
2020/12/01 00:06:40;;;;;;;10.60;6.85;;;17.70;46.10;;;;;;5072165;28;20523;-53
2020/12/01 00:09:06;;;;;;;8.73;6.10;;;17.70;46.10;;;;;;5071436;28;20044;-45
2020/12/01 00:11:34;;;;;;;10.88;6.90;;;17.70;46.20;;;;;;5070881;28;20041;-45
2020/12/01 00:14:01;;;;;;;12.20;7.47;;;17.70;46.20;;;;;;5069884;28;20512;-45
2020/12/01 00:16:28;;;;;;;10.90;6.85;;;17.80;46.30;;;;;;5068453;28;20079;-50
2020/12/01 00:18:55;;;;;;;10.68;5.78;;;17.80;46.40;;;;;;5066359;28;20061;-50
2020/12/01 00:21:21;;;;;;;11.23;7.05;;;17.80;46.40;;;;;;5064917;28;20040;-45
2020/12/01 00:23:49;;;;;;;10.32;6.25;;;17.80;46.40;;;;;;5070246;28;20056;-45
2020/12/01 00:26:16;;;;;;;11.50;5.78;;;17.80;46.50;;;;;;5067555;28;20551;-46
2020/12/01 00:28:43;;;;;;;9.60;6.60;;;17.80;46.50;;;;;;5068706;28;20079;-44
2020/12/01 00:31:09;;;;;;;9.10;5.88;;;17.80;46.50;;;;;;5068189;28;20127;-46
2020/12/01 00:33:37;;;;;;;9.27;5.97;;;17.80;46.50;;;;;;5064822;28;20086;-47
2020/12/01 00:36:03;;;;;;;10.35;5.78;;;17.90;46.70;;;;;;5075463;28;20075;-45
2020/12/01 00:38:30;;;;;;;10.02;6.22;;;17.90;46.70;;;;;;5072312;28;20075;-45
2020/12/01 00:40:57;;;;;;;8.57;5.65;;;17.90;46.70;;;;;;5072558;28;20060;-44
2020/12/01 00:43:24;;;;;;;8.73;6.13;;;17.90;46.70;;;;;;5072192;28;20040;-44
2020/12/01 00:45:51;;;;;;;7.95;5.13;;;17.90;46.70;;;;;;5069870;28;20457;-44
2020/12/01 00:48:18;;;;;;;6.72;5.05;;;17.90;46.70;;;;;;5070956;28;20523;-45
2020/12/01 00:50:46;;;;;;;9.00;4.05;;;18.00;46.70;;;;;;5073718;28;20052;-45
2020/12/01 00:53:13;;;;;;;9.27;5.30;;;17.90;46.70;;;;;;5073464;28;20650;-47
2020/12/01 00:55:41;;;;;;;5.32;4.75;;;17.90;46.70;;;;;;5073265;28;20044;-48
2020/12/01 00:58:08;;;;;;;7.25;4.68;;;18.00;46.70;;;;;;5069647;28;20048;-44
2020/12/01 01:00:44;;;;;;;8.10;4.60;;;18.00;46.80;;;;;;5063741;28;20473;-45
2020/12/01 01:03:17;;;;;;;6.78;4.95;;;18.00;46.70;;;;;;5069909;28;20049;-45
2020/12/01 01:05:44;;;;;;;6.22;4.32;;;18.00;46.80;;;;;;5073420;28;20048;-45
2020/12/01 01:08:13;;;;;;;8.88;4.88;;;18.00;46.80;;;;;;5066181;28;20496;-45
2020/12/01 01:10:40;;;;;;;5.20;3.78;;;18.00;46.80;;;;;;5071737;28;20041;-44
2020/12/01 01:13:08;;;;;;;6.72;4.93;;;18.00;46.80;;;;;;5071080;28;20048;-48
2020/12/01 01:15:35;;;;;;;6.78;4.03;;;18.00;46.90;;;;;;5068431;28;20059;-45
2020/12/01 01:18:03;;;;;;;6.95;3.78;;;18.00;46.90;;;;;;5074806;28;20045;-45
2020/12/01 01:20:30;;;;;;;10.00;4.45;;;18.00;46.90;;;;;;5071062;28;20625;-46
2020/12/01 01:22:57;;;;;;;8.75;4.97;;;18.00;47.00;;;;;;5072512;28;20450;-47
2020/12/01 01:25:25;;;;;;;6.13;3.95;;;18.10;47.00;;;;;;5072618;28;20040;-47
2020/12/01 01:27:52;;;;;;;6.22;4.05;;;18.10;47.00;;;;;;5056797;28;20594;-47
2020/12/01 01:30:21;;;;;;;6.13;4.03;;;18.10;47.00;;;;;;5071201;28;20523;-45
2020/12/01 01:32:47;;;;;;;7.20;3.92;;;18.10;47.10;;;;;;5073214;28;20443;-47
2020/12/01 01:35:15;;;;;;;5.50;3.35;;;18.10;47.10;;;;;;5072358;28;20179;-50
2020/12/01 01:37:42;;;;;;;4.50;3.88;;;18.10;47.10;;;;;;5072514;28;20565;-51
2020/12/01 01:40:16;;;;;;;5.05;3.83;;;18.10;47.10;;;;;;5072203;28;20040;-52
2020/12/01 01:42:44;;;;;;;4.53;3.25;;;18.10;47.10;;;;;;5058925;28;20049;-51
2020/12/01 01:45:11;;;;;;;6.50;3.25;;;18.10;47.10;;;;;;5072946;28;20110;-47
2020/12/01 01:47:38;;;;;;;5.60;3.75;;;18.10;47.10;;;;;;5072890;28;20044;-51
2020/12/01 01:50:15;;;;;;;5.72;3.63;;;18.10;47.20;;;;;;5070799;28;20087;-50
2020/12/01 01:52:43;;;;;;;;;;;18.10;47.20;;;;;;5071761;28;20048;-48
2020/12/01 01:55:13;;;;;;;5.78;2.38;;;18.10;47.10;;;;;;5072391;28;20010;-49
2020/12/01 01:57:42;;;;;;;6.05;3.55;;;18.10;47.40;;;;;;5066341;28;20040;-46
2020/12/01 02:00:26;;;;;;;5.32;3.25;;;18.10;47.40;;;;;;5055037;28;20044;-46
2020/12/01 02:02:53;;;;;;;6.95;3.70;;;18.10;47.50;;;;;;5071733;28;20516;-47
2020/12/01 02:05:20;;;;;;;5.85;2.53;;;18.10;47.50;;;;;;5071455;28;20458;-48
2020/12/01 02:07:46;;;;;;;6.68;3.30;;;18.10;47.40;;;;;;5071261;28;20409;-47
2020/12/01 02:10:13;;;;;;;5.55;3.65;;;18.10;47.50;;;;;;5072201;28;20036;-46
2020/12/01 02:12:41;;;;;;;4.72;2.97;;;18.10;47.50;;;;;;5066476;28;20044;-46
2020/12/01 02:15:10;;;;;;;4.85;2.53;;;18.20;48.20;;;;;;5072977;28;20072;-46
2020/12/01 02:17:39;;;;;;;5.72;1.70;;;18.10;47.60;;;;;;5071341;28;20575;-48
2020/12/01 02:20:10;;;;;;;7.43;2.65;;;18.10;47.60;;;;;;5070448;28;20040;-46
2020/12/01 02:22:37;;;;;;;3.03;1.40;;;18.10;47.70;;;;;;5072326;28;20079;-45
2020/12/01 02:25:04;;;;;;;3.75;1.25;;;18.20;47.70;;;;;;5063986;28;20083;-46
2020/12/01 02:27:31;;;;;;;3.50;1.88;;;18.10;47.80;;;;;;5065918;28;20055;-46
2020/12/01 02:29:59;;;;;;;5.55;1.42;;;18.10;47.80;;;;;;5066610;28;20793;-44
2020/12/01 02:32:27;;;;;;;2.15;1.40;;;18.20;47.90;;;;;;5071497;28;20504;-46
2020/12/01 02:34:57;;;;;;;2.03;0.82;;;18.20;47.90;;;;;;5066640;28;20139;-45
2020/12/01 02:37:27;;;;;;;5.93;0.90;;;18.20;47.90;;;;;;5071959;28;20071;-47
2020/12/01 02:39:54;;;;;;;1.63;0.70;;;18.10;47.90;;;;;;5066313;28;20094;-46
2020/12/01 02:42:24;;;;;;;1.52;0.95;;;18.20;47.90;;;;;;5077050;28;20037;-44
2020/12/01 02:44:53;;;;;;;2.17;0.73;;;18.20;47.90;;;;;;5064491;28;20127;-47
2020/12/01 02:47:21;;;;;;;3.08;0.80;;;18.20;47.90;;;;;;5068563;28;20136;-51
2020/12/01 02:49:47;;;;;;;3.80;0.82;;;18.20;47.80;;;;;;5067242;28;20033;-45
2020/12/01 02:52:15;;;;;;;7.68;1.35;;;18.20;47.70;;;;;;5068494;28;20119;-50
2020/12/01 02:54:42;;;;;;;16.75;0.82;;;18.20;47.70;;;;;;5064792;28;20040;-51
2020/12/01 02:57:08;;;;;;;2.72;0.50;;;18.20;47.60;;;;;;5072951;28;20131;-53
2020/12/01 02:59:35;;;;;;;3.72;0.50;;;18.20;47.50;;;;;;5071162;28;20383;-45
2020/12/01 03:02:02;;;;;;;1.45;0.20;;;18.20;47.30;;;;;;5069763;28;20106;-48
2020/12/01 03:04:29;;;;;;;1.92;0.40;;;18.20;47.20;;;;;;5069732;28;20040;-48
2020/12/01 03:06:56;;;;;;;0.65;0.20;;;18.20;47.00;;;;;;5068228;28;20076;-47
2020/12/01 03:09:22;;;;;;;3.10;0.40;;;18.20;47.00;;;;;;5069951;28;20083;-48
2020/12/01 03:11:50;;;;;;;2.63;0.22;;;18.10;46.90;;;;;;5071912;28;20045;-45
2020/12/01 03:14:18;;;;;;;3.53;0.40;;;18.10;46.80;;;;;;5069384;28;20098;-47
2020/12/01 03:16:46;;;;;;;2.28;0.20;;;18.20;46.70;;;;;;5068752;28;20051;-47
2020/12/01 03:19:14;;;;;;;1.60;0.30;;;18.10;46.50;;;;;;5069213;28;20048;-50
2020/12/01 03:21:41;;;;;;;2.42;0.20;;;18.10;46.30;;;;;;5065327;28;20086;-45
2020/12/01 03:24:07;;;;;;;2.20;0.30;;;18.10;46.20;;;;;;5059132;28;20068;-48
2020/12/01 03:26:34;;;;;;;0.35;0.35;;;18.10;46.10;;;;;;5068150;28;20658;-47
2020/12/01 03:29:00;;;;;;;1.10;0.47;;;18.10;46.00;;;;;;5068762;28;20566;-45
2020/12/01 03:31:27;;;;;;;1.45;0.10;;;18.00;45.90;;;;;;5068723;28;20574;-45
2020/12/01 03:33:54;;;;;;;5.07;0.20;;;18.10;45.80;;;;;;5067204;28;20162;-50
2020/12/01 03:36:21;;;;;;;0.88;0.22;;;18.00;45.60;;;;;;5069085;28;20087;-47
2020/12/01 03:38:48;;;;;;;2.00;0.20;;;18.00;45.50;;;;;;5070596;28;20463;-45
2020/12/01 03:41:16;;;;;;;0.40;0.10;;;18.00;45.50;;;;;;5068764;28;20480;-49
2020/12/01 03:43:43;;;;;;;2.15;0.20;;;18.00;45.50;;;;;;5066399;28;20040;-44
2020/12/01 03:46:10;;;;;;;2.45;0.22;;;18.00;45.50;;;;;;5061717;28;20071;-46
2020/12/01 03:48:36;;;;;;;3.70;0.10;;;18.00;45.40;;;;;;5065890;28;20599;-44
2020/12/01 03:51:03;;;;;;;1.10;0.10;;;17.90;45.40;;;;;;5072677;28;20068;-44
2020/12/01 03:53:30;;;;;;;0.55;0.10;;;17.90;45.30;;;;;;5068326;28;20068;-44
2020/12/01 03:55:57;;;;;;;1.17;0.20;;;17.90;45.30;;;;;;5068611;28;20591;-44
2020/12/01 03:58:24;;;;;;;0.80;0.10;;;17.90;45.30;;;;;;5068169;28;20530;-47
2020/12/01 04:00:50;;;;;;;1.80;0.50;;;17.90;45.30;;;;;;5067651;28;20064;-44
2020/12/01 04:03:17;;;;;;;1.15;0.52;;;17.80;45.40;;;;;;5068266;28;20124;-56
2020/12/01 04:05:43;;;;;;;2.85;0.10;;;17.80;45.40;;;;;;5071469;28;20098;-47
2020/12/01 04:08:11;;;;;;;0.70;0.20;;;17.80;45.40;;;;;;5068049;28;20055;-45
2020/12/01 04:10:38;;;;;;;2.38;0.40;;;17.80;45.40;;;;;;5068140;28;20064;-47
2020/12/01 04:13:05;;;;;;;1.70;0.10;;;17.80;45.40;;;;;;5067401;28;20094;-46
2020/12/01 04:15:32;;;;;;;4.50;0.10;;;17.80;45.40;;;;;;5065522;28;20056;-46
2020/12/01 04:17:58;;;;;;;0.85;0.10;;;17.70;45.30;;;;;;5071431;28;20063;-45
2020/12/01 04:20:25;;;;;;;0.63;0.05;;;17.80;45.50;;;;;;5068347;28;20113;-45
2020/12/01 04:22:52;;;;;;;1.02;0.10;;;17.70;45.50;;;;;;5068171;28;20072;-48
2020/12/01 04:25:21;;;;;;;4.97;0.10;;;17.70;45.60;;;;;;5067447;28;20048;-49
2020/12/01 04:27:49;;;;;;;1.17;0.00;;;17.70;45.60;;;;;;5066403;28;20119;-49
2020/12/01 04:30:18;;;;;;;1.17;0.10;;;17.70;45.50;;;;;;5067971;28;20045;-46
2020/12/01 04:32:45;;;;;;;5.32;0.10;;;17.70;45.50;;;;;;5071339;28;20045;-47
2020/12/01 04:35:12;;;;;;;2.15;0.10;;;17.70;45.40;;;;;;5068911;28;20041;-44
2020/12/01 04:37:38;;;;;;;0.68;0.00;;;17.70;45.40;;;;;;5070360;28;20052;-48
2020/12/01 04:40:06;;;;;;;1.40;0.52;;;17.70;45.50;;;;;;5067537;28;20108;-45
2020/12/01 04:42:35;;;;;;;1.50;0.10;;;17.70;45.50;;;;;;5065826;28;20056;-45
2020/12/01 04:45:06;;;;;;;0.32;0.05;;;17.70;45.50;;;;;;5072564;28;20045;-46
2020/12/01 04:47:49;;;;;;;2.25;0.10;;;17.60;45.50;;;;;;5068424;28;20719;-47
2020/12/01 04:50:25;;;;;;;0.70;0.10;;;17.60;45.40;;;;;;5068793;28;20086;-44
2020/12/01 04:53:22;;;;;;;0.57;0.05;;;17.60;45.40;;;;;;5068578;28;20048;-44
2020/12/01 04:56:17;;;;;;;1.42;0.43;;;17.60;45.50;;;;;;5061698;28;20080;-46
2020/12/01 04:59:14;;;;;;;2.03;0.05;;;17.60;45.50;;;;;;5068818;28;20048;-43
2020/12/01 05:02:12;;;;;;;2.85;0.10;;;17.50;45.50;;;;;;5068628;28;20056;-47
2020/12/01 05:04:46;;;;;;;3.92;0.25;;;17.50;45.60;;;;;;5068728;28;20052;-45
2020/12/01 05:07:29;;;;;;;0.30;0.10;;;17.50;45.70;;;;;;5068623;28;20261;-44
2020/12/01 05:09:59;;;;;;;4.28;0.20;;;17.50;45.80;;;;;;5066393;28;20060;-45
2020/12/01 05:12:33;;;;;;;0.60;0.10;;;17.50;45.80;;;;;;5067081;28;20657;-44
2020/12/01 05:15:05;;;;;;;0.43;0.32;;;17.50;45.90;;;;;;5072405;28;20060;-44
2020/12/01 05:17:52;;;;;;;1.27;0.10;;;17.50;45.80;;;;;;5068408;28;20048;-48
2020/12/01 05:20:19;;;;;;;;;;;17.50;45.90;;;;;;5070127;28;20135;-46
2020/12/01 05:22:49;;;;;;;0.65;0.10;;;17.40;45.80;;;;;;5072508;28;19969;-46
2020/12/01 05:25:21;;;;;;;5.10;0.10;;;17.40;45.90;;;;;;5073895;28;20040;-45
2020/12/01 05:27:47;;;;;;;2.95;0.20;;;17.40;45.90;;;;;;5067606;28;20087;-45
2020/12/01 05:30:19;;;;;;;1.67;0.82;;;17.40;45.80;;;;;;5073634;28;20052;-49
2020/12/01 05:32:54;;;;;;;0.52;0.10;;;17.40;45.80;;;;;;5073186;28;20180;-48
2020/12/01 05:35:24;;;;;;;3.42;0.10;;;17.40;45.70;;;;;;5071613;28;20043;-44
2020/12/01 05:38:01;;;;;;;1.13;0.17;;;17.40;45.80;;;;;;5071655;28;20577;-47
2020/12/01 05:40:31;;;;;;;0.60;0.10;;;17.40;45.80;;;;;;5071493;28;20515;-46
2020/12/01 05:42:58;;;;;;;1.02;0.00;;;17.30;45.70;;;;;;5069593;28;20040;-44
2020/12/01 05:45:31;;;;;;;1.85;0.00;;;17.30;45.70;;;;;;5070947;28;20409;-46
2020/12/01 05:48:22;;;;;;;1.27;0.10;;;17.40;45.80;;;;;;5074477;28;20048;-48
2020/12/01 05:50:56;;;;;;;1.10;0.10;;;17.40;45.80;;;;;;5073290;28;20053;-49
2020/12/01 05:53:22;;;;;;;5.20;0.10;;;17.30;45.80;;;;;;5072755;28;20040;-47
2020/12/01 05:56:12;;;;;;;1.80;0.10;;;17.30;45.80;;;;;;5068514;28;20086;-44
2020/12/01 05:58:41;;;;;;;1.85;0.10;;;17.30;45.80;;;;;;5069779;28;20059;-44
2020/12/01 06:01:08;;;;;;;0.63;0.10;;;17.30;45.80;;;;;;5083913;28;20143;-49
2020/12/01 06:03:49;;;;;;;0.85;0.10;;;17.30;45.80;;;;;;5068085;28;20799;-47
2020/12/01 06:06:16;;;;;;;2.92;0.10;;;17.30;45.70;;;;;;5083095;28;20056;-44
2020/12/01 06:08:50;;;;;;;5.15;0.40;;;17.30;45.70;;;;;;5071632;28;20065;-44
2020/12/01 06:11:34;;;;;;;5.53;0.52;;;17.30;45.70;;;;;;5071078;28;20041;-44
2020/12/01 06:14:03;;;;;;;2.10;0.20;;;17.30;45.50;;;;;;5070652;28;20102;-45
2020/12/01 06:16:39;;;;;;;0.45;0.20;;;17.30;46.10;;;;;;5072311;28;20089;-48
2020/12/01 06:19:21;;;;;;;4.55;0.10;;;17.30;45.40;;;;;;5069907;28;20036;-45
2020/12/01 06:22:18;;;;;;;6.75;0.08;;;17.30;45.40;;;;;;5055380;28;20047;-47
2020/12/01 06:25:15;;;;;;;3.63;0.10;;;17.30;45.40;;;;;;4970343;28;20213;-50
2020/12/01 06:28:03;;;;;;;2.10;0.10;;;17.30;45.30;;;;;;4980198;28;20050;-47
2020/12/01 06:30:58;;;;;;;2.10;0.52;;;17.30;45.30;;;;;;4981780;28;20657;-44
2020/12/01 06:34:09;;;;;;;5.93;0.32;;;17.30;45.40;;;;;;4972718;28;20054;-44
2020/12/01 06:37:12;;;;;;;2.10;0.10;;;17.30;45.30;;;;;;4981625;28;20050;-45
2020/12/01 06:39:53;;;;;;;3.78;0.00;;;17.30;45.30;;;;;;4979195;28;20049;-46
2020/12/01 06:42:26;;;;;;;3.97;0.40;;;17.30;45.30;;;;;;4980951;28;20451;-44
2020/12/01 06:44:58;;;;;;;2.22;0.10;;;17.20;45.20;;;;;;4983344;28;20059;-50
2020/12/01 06:47:29;;;;;;;2.70;0.20;;;17.20;45.10;;;;;;4983102;28;20133;-44
2020/12/01 06:50:00;;;;;;;5.10;0.50;;;17.20;45.10;;;;;;4982736;28;20124;-46
2020/12/01 06:52:26;;;;;;;2.78;0.10;;;17.20;45.10;;;;;;4965090;28;20489;-49
2020/12/01 06:54:56;;;;;;;1.83;0.10;;;17.20;45.10;;;;;;4980714;28;20595;-47
2020/12/01 06:57:30;;;;;;;0.70;0.10;;;17.30;45.10;;;;;;4980577;28;20042;-45
2020/12/01 06:59:57;;;;;;;0.85;0.40;;;17.30;45.00;;;;;;4982945;28;20112;-47
2020/12/01 07:02:31;;;;;;;0.90;0.10;;;17.30;45.10;;;;;;5045513;28;20131;-46
2020/12/01 07:05:07;;;;;;;3.38;0.10;;;17.30;45.00;;;;;;5066037;28;20049;-43
2020/12/01 07:07:36;;;;;;;2.78;0.10;;;17.30;45.00;;;;;;5064592;28;20041;-45
2020/12/01 07:10:24;;;;;;;4.45;0.20;;;17.30;44.90;;;;;;5065241;28;20044;-49
2020/12/01 07:12:57;;;;;;;2.83;0.10;;;17.30;45.00;;;;;;5052689;28;20150;-48
2020/12/01 07:15:35;;;;;;;0.95;0.20;;;17.30;45.00;;;;;;5069471;28;20420;-52
2020/12/01 07:18:08;;;;;;;4.00;0.35;;;17.30;45.00;;;;;;5073288;28;20048;-46
2020/12/01 07:20:55;;;;;;;3.58;0.20;;;17.30;45.00;;;;;;5066227;28;20056;-45
2020/12/01 07:23:28;;;;;;;2.85;1.02;;;17.20;45.00;;;;;;5062742;28;20139;-45
2020/12/01 07:26:19;;;;;;;3.75;0.20;;;17.20;44.90;;;;;;5069457;28;20489;-45
2020/12/01 07:29:01;;;;;;;2.65;0.40;;;17.30;45.00;;;;;;5068852;28;20049;-48
2020/12/01 07:31:30;;;;;;;2.60;0.20;;;17.20;45.00;;;;;;5064600;28;20048;-47
2020/12/01 07:34:00;;;;;;;3.75;0.10;;;17.20;45.00;;;;;;5066240;28;20068;-44
2020/12/01 07:36:36;;;;;;;2.40;0.20;;;17.20;44.90;;;;;;5064614;28;20626;-47
2020/12/01 07:39:16;;;;;;;4.05;0.47;;;17.20;44.90;;;;;;5068293;28;20133;-49
2020/12/01 07:41:54;;;;;;;4.97;0.20;;;17.20;45.00;;;;;;5082739;28;20044;-45
2020/12/01 07:44:23;;;;;;;6.93;1.10;;;17.20;45.00;;;;;;5064861;28;20048;-48
2020/12/01 07:47:10;;;;;;;3.10;0.30;;;17.20;45.00;;;;;;5065005;28;20441;-47
2020/12/01 07:49:38;;;;;;;2.90;0.30;;;17.30;45.10;;;;;;5064614;28;20100;-45
2020/12/01 07:52:20;;;;;;;1.10;0.20;;;17.20;45.10;;;;;;5063928;28;20495;-46
2020/12/01 07:54:50;;;;;;;2.75;0.35;;;17.20;45.10;;;;;;5064337;28;20055;-47
2020/12/01 07:57:18;;;;;;;2.78;0.40;;;17.20;45.90;;;;;;5064670;28;20071;-50
2020/12/01 07:59:47;;;;;;;1.40;0.20;;;17.30;45.40;;;;;;5064942;28;20124;-44
2020/12/01 08:02:16;;;;;;;5.40;0.17;;;17.30;45.40;;;;;;5063686;28;20105;-48
2020/12/01 08:04:43;;;;;;;4.47;1.00;;;17.30;45.40;;;;;;5065648;28;20048;-47
2020/12/01 08:07:14;;;;;;;0.65;0.10;;;17.30;45.70;;;;;;5061614;28;20064;-45
2020/12/01 08:09:41;;;;;;;8.15;3.15;;;17.30;45.70;;;;;;5062567;28;20083;-44
2020/12/01 08:12:12;;;;;;;15.80;7.57;;;17.40;45.80;;;;;;5066508;28;20029;-46
2020/12/01 08:14:38;;;;;;;5.50;2.15;;;17.40;46.30;;;;;;5058972;28;20139;-44
2020/12/01 08:17:11;;;;;;;9.07;2.35;;;17.40;46.30;;;;;;5064002;28;20044;-45
2020/12/01 08:19:38;;;;;;;4.78;1.63;;;17.50;46.20;;;;;;5067829;28;20044;-47
2020/12/01 08:22:08;;;;;;;5.68;0.95;;;17.40;46.00;;;;;;5061008;28;20044;-45
2020/12/01 08:24:38;;;;;;;4.25;1.27;;;17.50;46.50;;;;;;5062190;28;20381;-47
2020/12/01 08:27:11;;;;;;;3.42;1.55;;;17.50;45.90;;;;;;5066827;28;20057;-46
2020/12/01 08:29:39;;;;;;;3.22;0.68;;;17.50;45.80;;;;;;5071824;28;20041;-43
2020/12/01 08:32:12;;;;;;;3.67;0.68;;;17.60;45.70;;;;;;5065888;28;20040;-44
2020/12/01 08:34:47;;;;;;;3.45;0.43;;;17.60;45.90;;;;;;5067663;28;20591;-49
2020/12/01 08:37:35;;;;;;;6.30;0.77;;;17.60;45.80;;;;;;5063893;28;20048;-46
2020/12/01 08:40:15;;;;;;;1.00;0.50;;;17.70;45.70;;;;;;5059724;28;20079;-48
2020/12/01 08:43:06;;;;;;;3.90;1.85;;;17.60;45.70;;;;;;5054581;28;20037;-52
2020/12/01 08:45:40;;;;;;;6.95;1.65;;;17.70;45.70;;;;;;5072979;28;20574;-50
2020/12/01 08:48:18;;;;;;;3.53;0.75;;;17.70;45.70;;;;;;5077569;28;20060;-47
2020/12/01 08:50:44;;;;;;;3.45;1.10;;;17.70;45.50;;;;;;5071461;28;20435;-46
2020/12/01 08:53:14;;;;;;;1.40;0.50;;;17.70;45.40;;;;;;5067707;28;20870;-45
2020/12/01 08:55:50;;;;;;;18.50;1.30;;;17.70;45.30;;;;;;5068619;28;20439;-49
2020/12/01 08:58:29;;;;;;;4.82;1.35;;;17.70;45.90;;;;;;5071494;28;20464;-44
2020/12/01 09:00:57;;;;;;;2.78;0.68;;;17.70;45.20;;;;;;5070644;28;20114;-48
2020/12/01 09:03:25;;;;;;;3.10;0.95;;;17.80;45.30;;;;;;5071375;28;20045;-49
2020/12/01 09:05:53;;;;;;;5.90;0.95;;;17.80;45.20;;;;;;5065324;28;20056;-45
2020/12/01 09:08:45;;;;;;;6.22;1.00;;;17.80;45.30;;;;;;5071586;28;20098;-46
2020/12/01 09:14:12;;;;;;;4.60;0.28;;;17.80;45.20;;;;;;5063262;28;20054;-44
2020/12/01 09:16:52;;;;;;;6.68;0.60;;;17.80;45.10;;;;;;5071218;28;20144;-44
2020/12/01 09:22:12;;;;;;;2.45;0.40;;;17.80;45.20;;;;;;5003906;28;20509;-45
2020/12/01 09:24:40;;;;;;;3.83;0.47;;;17.80;45.10;;;;;;5000904;28;20120;-43
2020/12/01 09:27:09;;;;;;;5.43;0.90;;;17.80;45.10;;;;;;5010473;28;20145;-47
2020/12/01 09:29:37;;;;;;;2.83;0.95;;;17.80;45.00;;;;;;5017392;28;20045;-43
2020/12/01 09:32:06;;;;;;;2.25;0.70;;;17.80;45.00;;;;;;5012060;28;20141;-49
2020/12/01 09:34:35;;;;;;;4.97;0.40;;;17.90;44.80;;;;;;5008007;28;20144;-49
2020/12/01 09:37:03;;;;;;;3.95;0.60;;;17.90;44.80;;;;;;4995489;28;20433;-45
2020/12/01 09:39:31;;;;;;;5.22;0.47;;;17.90;44.80;;;;;;5005041;28;20061;-46
2020/12/01 09:42:07;;;;;;;7.72;1.15;;;17.90;44.70;;;;;;5013037;28;20129;-47
2020/12/01 09:44:49;;;;;;;7.90;0.32;;;17.90;44.60;;;;;;5000106;28;20060;-46
2020/12/01 09:47:21;;;;;;;5.28;0.40;;;17.90;44.60;;;;;;5005159;28;20100;-45
2020/12/01 09:49:48;;;;;;;3.42;0.30;;;17.90;44.60;;;;;;5009410;28;20524;-45
2020/12/01 09:52:18;;;;;;;15.35;1.00;;;17.90;44.60;;;;;;5007871;28;20088;-46
2020/12/01 09:54:49;;;;;;;5.80;0.40;;;17.90;44.60;;;;;;5006417;28;20057;-44
2020/12/01 09:57:21;;;;;;;2.10;0.32;;;17.90;44.50;;;;;;5006918;28;20091;-47
2020/12/01 10:00:04;;;;;;;2.35;0.60;;;17.90;44.60;;;;;;5045979;28;20079;-48
2020/12/01 10:08:23;;;;;;;4.95;0.50;;;18.00;44.60;;;;;;5066097;28;20057;-49
2020/12/01 10:13:44;;;;;;;1.73;0.50;;;18.00;44.50;;;;;;5059265;28;20053;-48
2020/12/01 10:28:10;;;;;;;3.17;0.28;;;18.00;44.40;;;;;;5039805;28;20041;-45
2020/12/01 10:35:50;;;;;;;7.35;0.38;;;18.00;44.70;;;;;;5020780;28;20115;-47
2020/12/01 10:38:18;;;;;;;2.97;0.30;;;18.10;44.80;;;;;;5021519;28;20133;-44
2020/12/01 10:40:44;;;;;;;6.40;0.70;;;18.10;44.70;;;;;;5021402;28;20060;-44
2020/12/01 10:43:12;;;;;;;4.75;0.28;;;18.10;44.60;;;;;;5016424;28;20116;-44
2020/12/01 10:45:39;;;;;;;2.78;0.40;;;18.10;44.60;;;;;;5020421;28;20049;-45
2020/12/01 10:48:06;;;;;;;4.28;1.20;;;18.10;44.50;;;;;;5021126;28;20135;-47
2020/12/01 10:50:33;;;;;;;5.65;1.13;;;18.10;44.40;;;;;;5020857;28;20052;-46
2020/12/01 10:52:59;;;;;;;3.60;0.43;;;18.10;44.40;;;;;;5020220;28;20497;-45
2020/12/01 10:55:30;;;;;;;11.07;1.35;;;18.20;44.40;;;;;;5019138;28;20545;-45
2020/12/01 10:57:57;;;;;;;3.10;0.45;;;18.20;44.30;;;;;;5025018;28;20080;-45
2020/12/01 11:00:26;;;;;;;3.30;0.52;;;18.20;44.30;;;;;;5061997;28;20090;-46
2020/12/01 11:02:53;;;;;;;4.95;0.57;;;18.20;44.40;;;;;;5064522;28;20052;-47
2020/12/01 11:05:22;;;;;;;4.10;0.22;;;18.20;44.30;;;;;;5064800;28;20041;-44
2020/12/01 11:07:48;;;;;;;13.55;0.90;;;18.20;44.30;;;;;;5064259;28;20051;-45
2020/12/01 11:10:15;;;;;;;4.63;1.00;;;18.20;44.30;;;;;;5062666;28;20044;-47
2020/12/01 11:12:44;;;;;;;4.70;0.68;;;18.30;44.40;;;;;;5082422;28;20120;-45
2020/12/01 11:15:11;;;;;;;2.60;0.88;;;18.30;44.30;;;;;;5080663;28;20139;-50
2020/12/01 11:17:37;;;;;;;3.65;0.88;;;18.30;44.20;;;;;;5067863;28;20052;-44
2020/12/01 11:20:05;;;;;;;2.13;0.50;;;18.30;44.20;;;;;;5068316;28;20076;-46
2020/12/01 11:22:32;;;;;;;10.65;1.02;;;18.30;44.10;;;;;;5065498;28;20037;-47
2020/12/01 11:24:59;;;;;;;4.00;0.63;;;18.30;44.10;;;;;;5066187;28;20056;-45
2020/12/01 11:27:25;;;;;;;6.47;0.60;;;18.30;44.00;;;;;;5067218;28;20040;-46
2020/12/01 11:29:53;;;;;;;5.07;0.70;;;18.30;44.00;;;;;;5064865;28;20036;-45
2020/12/01 11:32:20;;;;;;;2.03;0.50;;;18.30;44.00;;;;;;5061981;28;20051;-46
2020/12/01 11:34:46;;;;;;;4.88;0.65;;;18.30;43.90;;;;;;5064830;28;20411;-45
2020/12/01 11:37:13;;;;;;;3.70;0.55;;;18.30;43.90;;;;;;5063482;28;20052;-48
2020/12/01 11:39:40;;;;;;;6.80;1.30;;;18.30;43.80;;;;;;5067276;28;20045;-48
2020/12/01 11:42:06;;;;;;;4.30;0.60;;;18.30;43.90;;;;;;5068786;28;20079;-50
2020/12/01 11:44:33;;;;;;;11.13;0.75;;;18.30;43.90;;;;;;5066771;28;20049;-48
2020/12/01 11:47:00;;;;;;;11.45;0.95;;;18.30;43.80;;;;;;5063192;28;20127;-46
2020/12/01 11:49:27;;;;;;;4.45;0.90;;;18.30;43.80;;;;;;5065449;28;20123;-49
2020/12/01 11:51:54;;;;;;;3.60;0.85;;;18.30;43.90;;;;;;5079088;28;20040;-46
2020/12/01 11:54:21;;;;;;;10.48;1.02;;;18.30;43.80;;;;;;5070237;28;20141;-45
2020/12/01 11:56:48;;;;;;;2.88;0.60;;;18.30;43.80;;;;;;5072893;28;20055;-49
2020/12/01 11:59:14;;;;;;;3.10;0.40;;;18.30;43.80;;;;;;5066044;28;20055;-44
2020/12/01 12:01:41;;;;;;;4.95;0.98;;;18.30;43.80;;;;;;5067466;28;20032;-47
2020/12/01 12:04:08;;;;;;;4.65;0.50;;;18.30;43.80;;;;;;5063552;28;20472;-52
2020/12/01 12:06:36;;;;;;;6.70;0.50;;;18.30;43.80;;;;;;5065259;28;20041;-44
2020/12/01 12:09:04;;;;;;;5.15;1.13;;;18.30;43.80;;;;;;5067827;28;20051;-47
2020/12/01 12:11:31;;;;;;;5.60;0.45;;;18.30;43.90;;;;;;5066529;28;20036;-50
2020/12/01 12:13:58;;;;;;;7.00;0.55;;;18.30;43.80;;;;;;5066717;28;20115;-47
2020/12/01 12:16:24;;;;;;;4.43;0.93;;;18.30;43.80;;;;;;5066513;28;20140;-47
2020/12/01 12:18:51;;;;;;;4.93;0.60;;;18.30;43.80;;;;;;5065872;28;20079;-49
2020/12/01 12:21:20;;;;;;;4.97;1.00;;;18.40;43.80;;;;;;5066780;28;20044;-47
2020/12/01 12:23:47;;;;;;;3.90;0.80;;;18.40;43.80;;;;;;5066820;28;20090;-47
2020/12/01 12:26:14;;;;;;;4.32;0.90;;;18.40;43.80;;;;;;5066258;28;20046;-48
2020/12/01 12:28:41;;;;;;;4.97;0.57;;;18.40;43.80;;;;;;5064524;28;20090;-48
2020/12/01 12:31:10;;;;;;;5.55;0.63;;;18.40;43.90;;;;;;5067953;28;20097;-47
2020/12/01 12:33:37;;;;;;;8.45;1.92;;;18.40;43.90;;;;;;5069028;28;20119;-49
2020/12/01 12:36:04;;;;;;;3.38;0.50;;;18.50;43.80;;;;;;5072765;28;20424;-52
2020/12/01 12:38:31;;;;;;;4.32;1.65;;;18.50;43.70;;;;;;5070229;28;20044;-45
2020/12/01 12:40:59;;;;;;;4.22;1.33;;;18.50;43.60;;;;;;5070075;28;20075;-45
2020/12/01 12:43:27;;;;;;;3.83;0.70;;;18.50;43.60;;;;;;5070149;28;20493;-47
2020/12/01 12:45:54;;;;;;;12.40;1.33;;;18.50;43.60;;;;;;5067573;28;20866;-47
2020/12/01 12:48:23;;;;;;;8.60;0.88;;;18.50;43.60;;;;;;5072721;28;20102;-47
2020/12/01 12:50:50;;;;;;;23.77;1.52;;;18.50;43.60;;;;;;5070593;28;20048;-54
2020/12/01 12:53:17;;;;;;;5.85;1.33;;;18.50;43.60;;;;;;5068501;28;20512;-45
2020/12/01 12:55:44;;;;;;;6.13;0.75;;;18.60;43.70;;;;;;5065831;28;20098;-46
2020/12/01 12:58:11;;;;;;;8.00;0.98;;;18.60;43.60;;;;;;5068148;28;20119;-45
2020/12/01 13:00:38;;;;;;;10.18;1.67;;;18.60;43.70;;;;;;5067491;28;20059;-49
2020/12/01 13:03:04;;;;;;;6.50;0.88;;;18.60;43.80;;;;;;5066807;28;20045;-49
2020/12/01 13:05:31;;;;;;;7.13;1.35;;;18.60;43.80;;;;;;5064023;28;20062;-48
2020/12/01 13:07:58;;;;;;;13.27;0.98;;;18.60;43.90;;;;;;5068128;28;20140;-50
2020/12/01 13:10:25;;;;;;;12.70;1.45;;;18.60;43.80;;;;;;5066148;28;20098;-46
2020/12/01 13:12:53;;;;;;;5.63;1.52;;;18.60;43.80;;;;;;5062718;28;20094;-45
2020/12/01 13:15:20;;;;;;;8.23;0.70;;;18.70;43.70;;;;;;5072891;28;20432;-46
2020/12/01 13:17:47;;;;;;;11.43;0.90;;;18.70;43.70;;;;;;5063430;28;20048;-45
2020/12/01 13:20:18;;;;;;;10.98;1.55;;;18.70;43.60;;;;;;5076903;28;20044;-45
2020/12/01 13:22:45;;;;;;;14.70;1.95;;;18.70;43.50;;;;;;5069876;28;20044;-58
2020/12/01 13:25:11;;;;;;;6.35;1.55;;;18.70;43.70;;;;;;5053002;28;20040;-50
2020/12/01 13:27:38;;;;;;;13.45;1.35;;;18.70;45.30;;;;;;5060314;28;20044;-45
2020/12/01 13:30:07;;;;;;;13.43;1.33;;;18.70;46.00;;;;;;5088255;28;20051;-49
2020/12/01 13:32:33;;;;;;;20.70;2.38;;;18.70;46.70;;;;;;5070733;28;20509;-54
2020/12/01 13:35:00;;;;;;;7.68;1.73;;;18.70;46.90;;;;;;5074103;28;20582;-45